Kingston, Australia
Current Conditions -  °F | °C
As of 1:30 AM on Monday 24 Nov 2014 (Local Time) from YMHB Reporting Station
Scattered Clouds Scattered Clouds  
Wind Chill: 55°   Ceiling: Unl
Heat Index: 55°   Visibility: 6mi
Dew Point: 52°   Wind: 0mph
Humidity: 88%   Direction: NA
Pressure: 29.83"   Gusts: NA
Location:  42.97°S, 147.32°E
Report Text: YMHB 231430Z 00000KT 9999 FEW040 SCT250 13/11 Q1010
Loading
Personal Weather Stations






























Interactive Weather Map New forecast layout! Learn more

10-Day Weather Forecast

Advertisements
Track Severe Weather on mobile